Time;durP1;ratioP1;P1;durP2;ratioP2;P2;SDS_P1;SDS_P2;PMS_P1;PMS_P2;Temp;Humidity;BMP_temperature;BMP_pressure;BME280_temperature;BME280_humidity;BME280_pressure;Samples;Min_cycle;Max_cycle;Signal;HPM_P1;HPM_P2
2023/06/16 00:00:11;;;;;;;4.90;3.60;;;;;;;;;;10420785;28;20022;-60
2023/06/16 00:05:12;;;;;;;4.32;3.85;;;;;;;;;;10420518;28;20374;-61
2023/06/16 00:10:13;;;;;;;8.00;3.63;;;;;;;;;;10420601;28;20029;-62
2023/06/16 00:15:13;;;;;;;7.93;3.72;;;;;;;;;;10419497;28;20030;-62
2023/06/16 00:20:14;;;;;;;3.92;3.40;;;;;;;;;;10419789;28;20021;-62
2023/06/16 00:25:17;;;;;;;9.63;4.22;;;;;;;;;;10419832;28;20052;-64
2023/06/16 00:30:18;;;;;;;5.40;3.65;;;;;;;;;;10419683;28;20502;-62
2023/06/16 00:35:18;;;;;;;4.45;3.50;;;;;;;;;;10419483;28;20034;-70
2023/06/16 00:40:19;;;;;;;6.90;3.80;;;;;;;;;;10419458;28;20051;-70
2023/06/16 00:45:20;;;;;;;6.75;3.97;;;;;;;;;;10419287;28;20036;-70
2023/06/16 00:50:21;;;;;;;4.55;3.45;;;;;;;;;;10418415;28;20032;-69
2023/06/16 00:55:22;;;;;;;4.32;3.55;;;;;;;;;;10399228;28;20117;-70
2023/06/16 01:00:23;;;;;;;6.32;3.88;;;;;;;;;;10411910;28;20090;-70
2023/06/16 01:05:24;;;;;;;7.40;3.75;;;;;;;;;;10411534;28;20563;-71
2023/06/16 01:10:43;;;;;;;5.10;3.80;;;;;;;;;;10412360;28;20456;-71
2023/06/16 01:15:45;;;;;;;3.72;3.30;;;;;;;;;;10412164;28;20063;-71
2023/06/16 01:21:24;;;;;;;7.00;4.00;;;;;;;;;;10393995;28;20690;-70
2023/06/16 01:26:28;;;;;;;4.30;3.20;;;;;;;;;;10411752;28;20029;-70
2023/06/16 01:31:31;;;;;;;4.32;3.22;;;;;;;;;;10389097;28;20053;-64
2023/06/16 01:36:35;;;;;;;4.45;3.55;;;;;;;;;;10387242;28;20399;-69
2023/06/16 01:41:37;;;;;;;4.47;3.42;;;;;;;;;;10394007;28;20103;-71
2023/06/16 01:46:38;;;;;;;4.35;3.17;;;;;;;;;;10393320;28;20052;-71
2023/06/16 01:51:39;;;;;;;4.35;3.95;;;;;;;;;;10392677;28;20022;-70
2023/06/16 01:56:40;;;;;;;4.35;3.53;;;;;;;;;;10410495;28;20426;-71
2023/06/16 02:01:49;;;;;;;8.07;3.13;;;;;;;;;;10409724;28;20033;-70
2023/06/16 02:07:00;;;;;;;3.88;3.28;;;;;;;;;;10408610;28;20033;-67
2023/06/16 02:12:01;;;;;;;4.10;3.42;;;;;;;;;;10409542;28;20083;-70
2023/06/16 02:17:08;;;;;;;3.65;3.35;;;;;;;;;;10410020;28;20040;-70
2023/06/16 02:22:09;;;;;;;6.13;3.67;;;;;;;;;;10391707;28;20072;-69
2023/06/16 02:27:10;;;;;;;4.25;3.67;;;;;;;;;;10409108;28;20941;-69
2023/06/16 02:32:10;;;;;;;3.58;3.28;;;;;;;;;;10408148;28;20057;-63
2023/06/16 02:37:12;;;;;;;5.85;3.50;;;;;;;;;;10408901;28;20033;-63
2023/06/16 02:42:13;;;;;;;4.50;3.67;;;;;;;;;;10408389;28;20037;-62
2023/06/16 02:47:14;;;;;;;5.22;3.85;;;;;;;;;;10408603;28;20033;-63
2023/06/16 02:52:15;;;;;;;5.57;3.60;;;;;;;;;;10407667;28;20041;-63
2023/06/16 02:57:15;;;;;;;3.58;3.28;;;;;;;;;;10407762;28;20041;-63
2023/06/16 03:02:16;;;;;;;3.97;3.58;;;;;;;;;;10407757;28;20022;-63
2023/06/16 03:07:17;;;;;;;5.75;4.00;;;;;;;;;;10407597;28;20147;-64
2023/06/16 03:12:17;;;;;;;4.22;3.78;;;;;;;;;;10407234;28;20029;-61
2023/06/16 03:17:20;;;;;;;4.82;3.65;;;;;;;;;;10407311;28;20253;-62
2023/06/16 03:22:20;;;;;;;3.47;3.17;;;;;;;;;;10389440;28;20029;-66
2023/06/16 03:27:21;;;;;;;5.32;3.78;;;;;;;;;;10407173;28;20037;-64
2023/06/16 03:32:22;;;;;;;7.22;3.70;;;;;;;;;;10406732;28;20045;-68
2023/06/16 03:37:22;;;;;;;5.93;3.70;;;;;;;;;;10406400;28;20017;-70
2023/06/16 03:42:23;;;;;;;6.32;3.45;;;;;;;;;;10406430;28;20176;-69
2023/06/16 03:47:24;;;;;;;6.40;3.65;;;;;;;;;;10406938;28;20252;-68
2023/06/16 03:52:25;;;;;;;3.80;3.50;;;;;;;;;;10406615;28;20030;-71
2023/06/16 03:57:26;;;;;;;5.97;3.90;;;;;;;;;;10406306;28;20041;-69
2023/06/16 04:02:26;;;;;;;5.65;3.38;;;;;;;;;;10406404;28;20041;-70
2023/06/16 04:07:27;;;;;;;7.10;3.38;;;;;;;;;;10404934;28;20029;-71
2023/06/16 04:12:28;;;;;;;3.75;3.35;;;;;;;;;;10405926;28;20040;-68
2023/06/16 04:17:28;;;;;;;3.22;2.92;;;;;;;;;;10406865;28;20041;-66
2023/06/16 04:22:29;;;;;;;4.10;3.35;;;;;;;;;;10405825;28;20469;-69
2023/06/16 04:27:32;;;;;;;3.08;2.88;;;;;;;;;;10406233;28;20037;-70
2023/06/16 04:32:35;;;;;;;4.22;3.63;;;;;;;;;;10407454;28;20038;-70
2023/06/16 04:37:35;;;;;;;5.57;3.42;;;;;;;;;;10413566;28;20473;-70
2023/06/16 04:42:36;;;;;;;4.32;3.60;;;;;;;;;;10413482;28;20022;-71
2023/06/16 04:47:36;;;;;;;3.95;3.55;;;;;;;;;;10413051;28;20087;-75
2023/06/16 04:52:47;;;;;;;4.38;3.40;;;;;;;;;;10413105;28;20021;-74
2023/06/16 04:57:48;;;;;;;9.60;3.50;;;;;;;;;;10411693;28;20029;-65
2023/06/16 05:02:49;;;;;;;8.98;3.42;;;;;;;;;;10407498;28;20030;-65
2023/06/16 05:07:49;;;;;;;7.75;3.20;;;;;;;;;;10403662;28;20477;-65
2023/06/16 05:12:50;;;;;;;7.07;3.08;;;;;;;;;;10412533;28;20022;-65
2023/06/16 05:17:50;;;;;;;5.22;2.95;;;;;;;;;;10412264;28;20028;-65
2023/06/16 05:22:51;;;;;;;3.35;3.03;;;;;;;;;;10412515;28;20026;-66
2023/06/16 05:27:51;;;;;;;3.85;2.90;;;;;;;;;;10411376;28;20033;-65
2023/06/16 05:32:52;;;;;;;5.20;2.88;;;;;;;;;;10411465;28;20512;-63
2023/06/16 05:37:52;;;;;;;3.40;3.10;;;;;;;;;;10411394;28;20515;-63
2023/06/16 05:42:54;;;;;;;9.60;3.28;;;;;;;;;;10413007;28;20067;-62
2023/06/16 05:47:55;;;;;;;6.57;3.10;;;;;;;;;;10400794;28;20040;-62
2023/06/16 05:52:55;;;;;;;4.43;3.25;;;;;;;;;;10410498;28;20473;-65
2023/06/16 05:57:56;;;;;;;4.93;3.42;;;;;;;;;;10411409;28;20527;-62
2023/06/16 06:02:56;;;;;;;4.00;2.90;;;;;;;;;;10417264;28;20025;-63
2023/06/16 06:07:57;;;;;;;7.60;3.50;;;;;;;;;;10409800;28;20034;-65
2023/06/16 06:13:02;;;;;;;10.75;3.80;;;;;;;;;;10410177;28;20157;-65
2023/06/16 06:18:03;;;;;;;8.68;3.20;;;;;;;;;;10400897;28;20421;-62
2023/06/16 06:23:04;;;;;;;6.22;3.47;;;;;;;;;;10409194;28;20033;-63
2023/06/16 06:28:04;;;;;;;4.45;3.28;;;;;;;;;;10405710;28;20033;-64
2023/06/16 06:33:05;;;;;;;6.47;2.97;;;;;;;;;;10405878;28;20048;-64
2023/06/16 06:38:06;;;;;;;6.68;3.42;;;;;;;;;;10406916;28;20045;-70
2023/06/16 06:43:06;;;;;;;12.25;3.83;;;;;;;;;;10401287;28;20145;-69
2023/06/16 06:48:07;;;;;;;7.00;3.15;;;;;;;;;;10407572;28;20072;-68
2023/06/16 06:53:07;;;;;;;4.72;3.58;;;;;;;;;;10408044;28;20524;-68
2023/06/16 06:58:08;;;;;;;6.85;3.50;;;;;;;;;;10407880;28;20531;-69
2023/06/16 07:03:08;;;;;;;5.00;3.60;;;;;;;;;;10408055;28;20029;-67
2023/06/16 07:08:09;;;;;;;10.60;3.65;;;;;;;;;;10407809;28;20106;-69
2023/06/16 07:13:10;;;;;;;5.07;3.47;;;;;;;;;;10407808;28;20017;-68
2023/06/16 07:18:10;;;;;;;10.20;3.70;;;;;;;;;;10407981;28;20029;-67
2023/06/16 07:23:11;;;;;;;11.15;3.60;;;;;;;;;;10407303;28;20401;-69
2023/06/16 07:28:12;;;;;;;7.57;3.30;;;;;;;;;;10407148;28;20373;-69
2023/06/16 07:33:12;;;;;;;4.15;3.17;;;;;;;;;;10407352;28;20045;-62
2023/06/16 07:38:14;;;;;;;7.00;3.20;;;;;;;;;;10406853;28;20041;-62
2023/06/16 07:43:15;;;;;;;5.03;3.15;;;;;;;;;;10406419;28;20042;-63
2023/06/16 07:48:15;;;;;;;5.32;3.45;;;;;;;;;;10406194;28;20036;-61
2023/06/16 07:53:16;;;;;;;4.50;3.33;;;;;;;;;;10406570;28;20165;-61
2023/06/16 07:58:16;;;;;;;6.28;3.20;;;;;;;;;;10406365;28;20094;-61
2023/06/16 08:03:21;;;;;;;5.38;3.53;;;;;;;;;;10406215;28;20436;-62
2023/06/16 08:08:22;;;;;;;3.75;3.13;;;;;;;;;;10412676;28;20037;-62
2023/06/16 08:13:23;;;;;;;5.68;3.38;;;;;;;;;;10413842;28;20500;-62
2023/06/16 08:18:24;;;;;;;5.53;3.55;;;;;;;;;;10414412;28;20029;-62
2023/06/16 08:23:25;;;;;;;4.18;3.42;;;;;;;;;;10413687;28;20026;-62
2023/06/16 08:28:26;;;;;;;6.85;3.35;;;;;;;;;;10413751;28;20177;-68
2023/06/16 08:33:26;;;;;;;5.43;3.00;;;;;;;;;;10413806;28;20124;-63
2023/06/16 08:38:27;;;;;;;5.25;3.63;;;;;;;;;;10413313;28;20088;-65
2023/06/16 08:43:28;;;;;;;4.32;3.10;;;;;;;;;;10413428;28;20025;-63
2023/06/16 08:48:28;;;;;;;3.70;3.28;;;;;;;;;;10413180;28;20025;-68
2023/06/16 08:53:33;;;;;;;3.63;3.22;;;;;;;;;;10412975;28;20473;-67
2023/06/16 08:58:37;;;;;;;4.20;3.30;;;;;;;;;;10412932;28;20034;-67
2023/06/16 09:03:38;;;;;;;4.70;2.90;;;;;;;;;;10394936;28;20117;-68
2023/06/16 09:08:38;;;;;;;6.20;3.25;;;;;;;;;;10412325;28;20048;-68
2023/06/16 09:13:42;;;;;;;4.25;3.22;;;;;;;;;;10412210;28;20439;-68
2023/06/16 09:18:44;;;;;;;4.43;3.00;;;;;;;;;;10411307;28;20329;-68
2023/06/16 09:23:47;;;;;;;4.47;3.30;;;;;;;;;;10411405;28;20029;-68
2023/06/16 09:28:47;;;;;;;3.67;3.08;;;;;;;;;;10411517;28;20060;-62
2023/06/16 09:33:48;;;;;;;4.53;3.00;;;;;;;;;;10410744;28;20120;-68
2023/06/16 09:38:50;;;;;;;3.90;3.45;;;;;;;;;;10411924;28;20026;-68
2023/06/16 09:43:51;;;;;;;3.35;3.03;;;;;;;;;;10410865;28;20029;-68
2023/06/16 09:48:51;;;;;;;4.28;3.38;;;;;;;;;;10411302;28;20032;-68
2023/06/16 09:53:53;;;;;;;5.50;3.20;;;;;;;;;;10410860;28;20386;-68
2023/06/16 09:58:53;;;;;;;3.95;3.25;;;;;;;;;;10409336;28;20432;-68
2023/06/16 10:03:55;;;;;;;4.00;3.60;;;;;;;;;;10410014;28;20033;-67
2023/06/16 10:08:58;;;;;;;4.75;3.28;;;;;;;;;;10392850;28;20450;-68
2023/06/16 10:14:03;;;;;;;3.80;3.30;;;;;;;;;;10392820;28;20017;-68
2023/06/16 10:19:06;;;;;;;4.10;3.60;;;;;;;;;;10392388;28;20037;-68
2023/06/16 10:24:07;;;;;;;4.20;3.30;;;;;;;;;;10392501;28;20029;-68
2023/06/16 10:29:08;;;;;;;4.13;3.17;;;;;;;;;;10407244;28;20416;-61
2023/06/16 10:34:18;;;;;;;4.35;3.22;;;;;;;;;;10391183;28;20056;-61
2023/06/16 10:39:19;;;;;;;3.45;3.10;;;;;;;;;;10409529;28;20494;-65
2023/06/16 10:44:32;;;;;;;3.60;3.30;;;;;;;;;;10407946;28;20098;-62
2023/06/16 10:49:58;;;;;;;3.42;3.10;;;;;;;;;;10408446;28;20025;-61
2023/06/16 10:55:37;;;;;;;4.18;3.30;;;;;;;;;;10408132;28;20083;-61
2023/06/16 11:00:42;;;;;;;5.00;3.40;;;;;;;;;;10407584;28;20489;-61
2023/06/16 11:05:46;;;;;;;4.25;3.50;;;;;;;;;;10408376;28;20033;-61
2023/06/16 11:10:57;;;;;;;4.75;3.72;;;;;;;;;;10407579;28;20397;-61
2023/06/16 11:15:59;;;;;;;4.22;3.30;;;;;;;;;;10408211;28;20026;-62
2023/06/16 11:21:07;;;;;;;5.38;3.33;;;;;;;;;;10389873;28;20045;-62
2023/06/16 11:26:18;;;;;;;4.75;3.67;;;;;;;;;;10407270;28;20030;-61
2023/06/16 11:31:19;;;;;;;4.05;3.40;;;;;;;;;;10406363;28;20053;-62
2023/06/16 11:36:23;;;;;;;4.13;3.70;;;;;;;;;;10406898;28;20381;-68
2023/06/16 11:41:35;;;;;;;3.75;3.40;;;;;;;;;;10388018;28;20057;-67
2023/06/16 11:46:36;;;;;;;3.67;3.33;;;;;;;;;;10406766;28;20042;-65
2023/06/16 11:51:36;;;;;;;4.68;3.40;;;;;;;;;;10406495;28;20067;-68
2023/06/16 11:56:39;;;;;;;4.43;3.42;;;;;;;;;;10388706;28;20037;-65
2023/06/16 12:01:40;;;;;;;4.00;3.47;;;;;;;;;;10389700;28;20033;-67
2023/06/16 12:06:41;;;;;;;5.45;3.67;;;;;;;;;;10406047;28;20030;-66
2023/06/16 12:11:44;;;;;;;6.88;3.72;;;;;;;;;;10388286;28;20497;-66
2023/06/16 12:16:45;;;;;;;5.85;3.55;;;;;;;;;;10389380;28;20121;-68
2023/06/16 12:21:58;;;;;;;7.15;3.45;;;;;;;;;;10407139;28;20735;-68
2023/06/16 12:26:59;;;;;;;5.57;3.45;;;;;;;;;;10389268;28;20029;-67
2023/06/16 12:32:03;;;;;;;4.53;3.75;;;;;;;;;;10405619;28;20089;-61
2023/06/16 12:37:12;;;;;;;4.75;3.67;;;;;;;;;;10409656;28;20044;-63
2023/06/16 12:42:13;;;;;;;4.95;3.50;;;;;;;;;;10406739;28;20038;-62
2023/06/16 12:47:16;;;;;;;5.75;3.60;;;;;;;;;;10406985;28;20398;-63
2023/06/16 12:52:21;;;;;;;4.18;3.33;;;;;;;;;;10406016;28;20061;-61
2023/06/16 12:57:24;;;;;;;3.65;3.35;;;;;;;;;;10412574;28;20461;-60
2023/06/16 13:02:24;;;;;;;5.90;3.50;;;;;;;;;;10408057;28;20156;-67
2023/06/16 13:07:25;;;;;;;5.20;3.78;;;;;;;;;;10416719;28;20033;-61
2023/06/16 13:12:26;;;;;;;4.07;3.75;;;;;;;;;;10414642;28;20026;-62
2023/06/16 13:17:26;;;;;;;7.28;3.85;;;;;;;;;;10412305;28;20033;-62
2023/06/16 13:22:28;;;;;;;3.80;3.40;;;;;;;;;;10405685;28;20060;-62
2023/06/16 13:27:29;;;;;;;5.30;3.55;;;;;;;;;;10410349;28;20116;-61
2023/06/16 13:32:29;;;;;;;4.70;3.58;;;;;;;;;;10406726;28;20057;-70
2023/06/16 13:37:30;;;;;;;3.97;3.60;;;;;;;;;;10412892;28;20025;-70
2023/06/16 13:42:31;;;;;;;4.78;3.42;;;;;;;;;;10411515;28;20043;-70
2023/06/16 13:47:32;;;;;;;4.78;3.80;;;;;;;;;;10411531;28;20025;-70
2023/06/16 13:52:33;;;;;;;5.82;4.10;;;;;;;;;;10411044;28;20029;-70
2023/06/16 13:57:33;;;;;;;4.65;3.55;;;;;;;;;;10410962;28;20064;-70
2023/06/16 14:02:34;;;;;;;4.68;3.50;;;;;;;;;;10410339;28;20559;-71
2023/06/16 14:07:34;;;;;;;7.60;4.18;;;;;;;;;;10410399;28;20037;-68
2023/06/16 14:12:35;;;;;;;5.35;3.80;;;;;;;;;;10410029;28;20426;-68
2023/06/16 14:17:38;;;;;;;6.95;4.35;;;;;;;;;;10410419;28;20113;-68
2023/06/16 14:22:39;;;;;;;9.65;4.18;;;;;;;;;;10392510;28;20124;-68
2023/06/16 14:27:39;;;;;;;15.50;4.82;;;;;;;;;;10409829;28;20515;-68
2023/06/16 14:32:41;;;;;;;12.00;4.53;;;;;;;;;;10409056;28;20029;-68
2023/06/16 14:37:42;;;;;;;11.18;4.45;;;;;;;;;;10408832;28;20032;-63
2023/06/16 14:42:42;;;;;;;9.50;5.15;;;;;;;;;;10408681;28;20029;-69
2023/06/16 14:47:43;;;;;;;12.43;4.47;;;;;;;;;;10409149;28;20616;-68
2023/06/16 14:52:44;;;;;;;5.53;4.13;;;;;;;;;;10408421;28;20026;-68
2023/06/16 14:57:44;;;;;;;8.57;4.38;;;;;;;;;;10408816;28;20029;-65
2023/06/16 15:02:45;;;;;;;6.95;4.28;;;;;;;;;;10408611;28;20037;-68
2023/06/16 15:07:45;;;;;;;8.18;4.50;;;;;;;;;;10408316;28;20037;-68
2023/06/16 15:12:46;;;;;;;7.68;4.80;;;;;;;;;;10408102;28;20405;-68
2023/06/16 15:17:46;;;;;;;9.02;4.22;;;;;;;;;;10407622;28;20389;-67
2023/06/16 15:22:47;;;;;;;9.18;4.05;;;;;;;;;;10407614;28;20125;-69
2023/06/16 15:27:48;;;;;;;6.65;4.28;;;;;;;;;;10406275;28;20021;-68
2023/06/16 15:32:48;;;;;;;6.63;3.88;;;;;;;;;;10405334;28;20497;-68
2023/06/16 15:37:49;;;;;;;9.02;4.13;;;;;;;;;;10406966;28;20029;-65
2023/06/16 15:43:03;;;;;;;6.57;4.50;;;;;;;;;;10407130;28;20040;-64
2023/06/16 15:48:04;;;;;;;8.57;4.50;;;;;;;;;;10407639;28;20067;-68
2023/06/16 15:53:05;;;;;;;5.47;4.10;;;;;;;;;;10406956;28;20487;-66
2023/06/16 15:58:05;;;;;;;46.80;5.97;;;;;;;;;;10407122;28;20104;-64
2023/06/16 16:03:06;;;;;;;41.08;6.75;;;;;;;;;;10405517;28;20108;-61
2023/06/16 16:08:07;;;;;;;51.33;6.47;;;;;;;;;;10406258;28;20052;-62
2023/06/16 16:13:07;;;;;;;21.08;5.53;;;;;;;;;;10406261;28;20025;-61
2023/06/16 16:18:08;;;;;;;27.98;6.07;;;;;;;;;;10405428;28;20527;-61
2023/06/16 16:23:09;;;;;;;20.63;5.20;;;;;;;;;;10405729;28;20482;-59
2023/06/16 16:28:09;;;;;;;28.38;5.47;;;;;;;;;;10409689;28;20120;-60
2023/06/16 16:33:10;;;;;;;13.15;5.65;;;;;;;;;;10412267;28;20091;-61
2023/06/16 16:38:12;;;;;;;27.33;5.95;;;;;;;;;;10410231;28;20037;-61
2023/06/16 16:43:12;;;;;;;14.93;5.40;;;;;;;;;;10412405;28;20029;-62
2023/06/16 16:48:13;;;;;;;17.75;5.75;;;;;;;;;;10402236;28;20041;-62
2023/06/16 16:53:14;;;;;;;17.58;6.07;;;;;;;;;;10414327;28;20469;-61
2023/06/16 16:58:15;;;;;;;25.15;6.05;;;;;;;;;;10412495;28;20029;-61
2023/06/16 17:03:15;;;;;;;11.55;5.22;;;;;;;;;;10412570;28;20037;-61
2023/06/16 17:08:16;;;;;;;7.53;4.78;;;;;;;;;;10411384;28;20748;-61
2023/06/16 17:13:17;;;;;;;13.63;5.43;;;;;;;;;;10412020;28;20432;-61
2023/06/16 17:18:17;;;;;;;26.42;5.32;;;;;;;;;;10412403;28;20017;-61
2023/06/16 17:23:18;;;;;;;13.93;5.30;;;;;;;;;;10411823;28;20032;-61
2023/06/16 17:28:18;;;;;;;13.80;5.57;;;;;;;;;;10411751;28;20025;-61
2023/06/16 17:33:19;;;;;;;11.30;5.15;;;;;;;;;;10403753;28;20041;-59
2023/06/16 17:38:20;;;;;;;9.23;5.00;;;;;;;;;;10403618;28;20029;-59
2023/06/16 17:43:21;;;;;;;10.20;5.30;;;;;;;;;;10410527;28;20033;-59
2023/06/16 17:48:22;;;;;;;10.20;5.07;;;;;;;;;;10410823;28;20060;-60
2023/06/16 17:53:22;;;;;;;7.85;4.72;;;;;;;;;;10403344;28;20037;-60
2023/06/16 17:58:23;;;;;;;9.10;5.05;;;;;;;;;;10403566;28;20049;-60
2023/06/16 18:03:24;;;;;;;7.90;4.68;;;;;;;;;;10410156;28;20030;-60
2023/06/16 18:08:25;;;;;;;5.68;4.60;;;;;;;;;;10409943;28;20420;-60
2023/06/16 18:13:26;;;;;;;9.35;4.95;;;;;;;;;;10410041;28;20037;-59
2023/06/16 18:18:27;;;;;;;8.60;4.85;;;;;;;;;;10402861;28;20409;-59
2023/06/16 18:23:27;;;;;;;5.28;4.75;;;;;;;;;;10406909;28;20030;-59
2023/06/16 18:28:28;;;;;;;5.75;4.72;;;;;;;;;;10394216;28;20029;-59
2023/06/16 18:33:30;;;;;;;15.82;5.10;;;;;;;;;;10398002;28;20049;-59
2023/06/16 18:38:30;;;;;;;28.38;6.47;;;;;;;;;;10406638;28;20029;-59
2023/06/16 18:43:31;;;;;;;13.30;5.55;;;;;;;;;;10407561;28;20405;-59
2023/06/16 18:48:31;;;;;;;17.33;6.10;;;;;;;;;;10408658;28;20029;-59
2023/06/16 18:53:32;;;;;;;7.07;5.00;;;;;;;;;;10407512;28;20068;-59
2023/06/16 18:58:32;;;;;;;7.70;4.72;;;;;;;;;;10406045;28;20030;-59
2023/06/16 19:03:33;;;;;;;10.95;4.78;;;;;;;;;;10407577;28;20044;-59
2023/06/16 19:08:34;;;;;;;7.22;5.03;;;;;;;;;;10407380;28;20158;-59
2023/06/16 19:13:35;;;;;;;10.38;4.80;;;;;;;;;;10408326;28;20041;-59
2023/06/16 19:18:36;;;;;;;5.60;4.90;;;;;;;;;;10407928;28;20026;-59
2023/06/16 19:23:36;;;;;;;13.63;5.20;;;;;;;;;;10406320;28;20083;-59
2023/06/16 19:28:48;;;;;;;5.22;4.35;;;;;;;;;;10406316;28;20037;-59
2023/06/16 19:33:49;;;;;;;9.52;3.97;;;;;;;;;;10406683;28;20409;-61
2023/06/16 19:38:53;;;;;;;9.55;5.10;;;;;;;;;;10406998;28;20033;-59
2023/06/16 19:43:53;;;;;;;9.90;4.10;;;;;;;;;;10407121;28;20038;-59
2023/06/16 19:48:54;;;;;;;5.57;3.70;;;;;;;;;;10406792;28;20033;-59
2023/06/16 19:53:55;;;;;;;4.80;3.75;;;;;;;;;;10406524;28;20025;-59
2023/06/16 19:58:55;;;;;;;4.75;4.25;;;;;;;;;;10406619;28;20361;-59
2023/06/16 20:03:56;;;;;;;6.63;4.28;;;;;;;;;;10411389;28;20531;-59
2023/06/16 20:08:56;;;;;;;7.00;4.35;;;;;;;;;;10415095;28;20021;-59
2023/06/16 20:13:58;;;;;;;6.10;4.53;;;;;;;;;;10414260;28;20022;-59
2023/06/16 20:18:59;;;;;;;5.43;4.53;;;;;;;;;;10415163;28;20035;-59
2023/06/16 20:23:59;;;;;;;5.18;3.72;;;;;;;;;;10413878;28;20021;-59
2023/06/16 20:29:00;;;;;;;7.00;4.47;;;;;;;;;;10414191;28;20021;-59
2023/06/16 20:34:00;;;;;;;6.30;4.88;;;;;;;;;;10414054;28;20052;-59
2023/06/16 20:39:03;;;;;;;4.78;4.30;;;;;;;;;;10413156;28;20557;-59
2023/06/16 20:44:04;;;;;;;7.25;4.70;;;;;;;;;;10396886;28;20021;-59
2023/06/16 20:49:08;;;;;;;6.00;4.03;;;;;;;;;;10413721;28;20025;-59
2023/06/16 20:54:09;;;;;;;10.02;4.88;;;;;;;;;;10413679;28;20041;-60
2023/06/16 20:59:11;;;;;;;5.82;4.68;;;;;;;;;;10413125;28;20036;-60
2023/06/16 21:04:15;;;;;;;7.70;4.55;;;;;;;;;;10412799;28;20037;-60
2023/06/16 21:09:16;;;;;;;6.43;4.22;;;;;;;;;;10413146;28;20043;-59
2023/06/16 21:14:17;;;;;;;4.85;4.22;;;;;;;;;;10411116;28;20029;-60
2023/06/16 21:19:19;;;;;;;4.90;4.07;;;;;;;;;;10412859;28;20083;-60
2023/06/16 21:24:26;;;;;;;9.65;4.57;;;;;;;;;;10411118;28;20033;-60
2023/06/16 21:29:27;;;;;;;4.77;4.30;;;;;;;;;;10412004;28;20030;-60
2023/06/16 21:34:28;;;;;;;6.35;4.90;;;;;;;;;;10411410;28;20042;-60
2023/06/16 21:39:31;;;;;;;6.25;4.63;;;;;;;;;;10410963;28;20428;-60
2023/06/16 21:44:31;;;;;;;7.68;5.15;;;;;;;;;;10411005;28;20037;-59
2023/06/16 21:49:32;;;;;;;14.00;4.90;;;;;;;;;;10410596;28;20512;-59
2023/06/16 21:54:32;;;;;;;6.75;4.50;;;;;;;;;;10410975;28;20481;-59
2023/06/16 21:59:35;;;;;;;8.57;4.43;;;;;;;;;;10410421;28;20497;-59
2023/06/16 22:04:36;;;;;;;10.02;4.70;;;;;;;;;;10410075;28;20038;-60
2023/06/16 22:09:37;;;;;;;9.80;5.15;;;;;;;;;;10394746;28;20030;-59
2023/06/16 22:14:38;;;;;;;12.52;4.88;;;;;;;;;;10407830;28;20697;-60
2023/06/16 22:19:41;;;;;;;10.13;4.85;;;;;;;;;;10409971;28;20055;-60
2023/06/16 22:24:41;;;;;;;10.75;4.60;;;;;;;;;;10409024;28;20025;-59
2023/06/16 22:29:42;;;;;;;6.68;4.82;;;;;;;;;;10408789;28;20030;-60
2023/06/16 22:34:43;;;;;;;6.63;4.53;;;;;;;;;;10407890;28;20037;-60
2023/06/16 22:39:48;;;;;;;6.43;4.55;;;;;;;;;;10408844;28;20029;-60
2023/06/16 22:44:49;;;;;;;8.48;4.05;;;;;;;;;;10408718;28;20029;-59
2023/06/16 22:49:50;;;;;;;5.65;4.03;;;;;;;;;;10407671;28;20029;-59
2023/06/16 22:54:51;;;;;;;9.57;4.07;;;;;;;;;;10406929;28;20469;-61
2023/06/16 22:59:51;;;;;;;9.32;4.18;;;;;;;;;;10408263;28;20021;-60
2023/06/16 23:04:52;;;;;;;5.95;3.97;;;;;;;;;;10407499;28;20029;-61
2023/06/16 23:09:52;;;;;;;7.15;4.28;;;;;;;;;;10396921;28;20080;-60
2023/06/16 23:14:53;;;;;;;5.38;4.50;;;;;;;;;;10394015;28;20029;-62
2023/06/16 23:19:53;;;;;;;14.20;4.22;;;;;;;;;;10403762;28;20091;-61
2023/06/16 23:24:54;;;;;;;9.00;4.25;;;;;;;;;;10407210;28;20225;-61
2023/06/16 23:29:55;;;;;;;6.18;4.10;;;;;;;;;;10406660;28;20033;-61
2023/06/16 23:34:55;;;;;;;4.65;3.85;;;;;;;;;;10406345;28;20045;-61
2023/06/16 23:39:56;;;;;;;13.60;4.55;;;;;;;;;;10406159;28;20029;-61
2023/06/16 23:44:57;;;;;;;6.30;4.22;;;;;;;;;;10406450;28;20034;-61
2023/06/16 23:49:58;;;;;;;5.22;4.70;;;;;;;;;;10406979;28;20384;-61
2023/06/16 23:54:58;;;;;;;6.05;4.15;;;;;;;;;;10406721;28;20474;-61
2023/06/16 23:59:59;;;;;;;6.95;4.50;;;;;;;;;;10406648;28;20021;-62
